Time;durP1;ratioP1;P1;durP2;ratioP2;P2;SDS_P1;SDS_P2;PMS_P1;PMS_P2;Temp;Humidity;BMP_temperature;BMP_pressure;BME280_temperature;BME280_humidity;BME280_pressure;Samples;Min_cycle;Max_cycle;Signal;HPM_P1;HPM_P2
2021/11/24 00:00:03;;;;;;;21.60;10.77;;;7.30;99.90;;;;;;5039511;28;20022;-77
2021/11/24 00:02:29;;;;;;;12.57;11.02;;;7.40;99.90;;;;;;5054125;28;20029;-76
2021/11/24 00:04:54;;;;;;;13.85;10.30;;;7.40;99.90;;;;;;5052200;28;20035;-76
2021/11/24 00:07:20;;;;;;;15.52;11.23;;;7.40;99.90;;;;;;5053850;28;20443;-76
2021/11/24 00:09:45;;;;;;;12.95;11.65;;;7.40;99.90;;;;;;5053488;28;20048;-77
2021/11/24 00:12:11;;;;;;;15.80;11.50;;;7.30;99.90;;;;;;5052555;28;20074;-76
2021/11/24 00:14:37;;;;;;;12.95;11.27;;;7.40;99.90;;;;;;5053660;28;20040;-76
2021/11/24 00:17:02;;;;;;;14.18;10.18;;;7.50;99.90;;;;;;5053391;28;20477;-77
2021/11/24 00:19:28;;;;;;;12.07;10.57;;;7.40;99.90;;;;;;5052871;28;20028;-77
2021/11/24 00:21:53;;;;;;;11.82;9.70;;;7.40;99.90;;;;;;5053718;28;20087;-76
2021/11/24 00:24:21;;;;;;;10.30;9.18;;;7.40;99.90;;;;;;5053470;28;20032;-76
2021/11/24 00:26:47;;;;;;;10.57;9.48;;;7.40;99.90;;;;;;5052866;28;20404;-75
2021/11/24 00:29:12;;;;;;;9.63;8.77;;;7.30;99.90;;;;;;5055483;28;20024;-76
2021/11/24 00:31:38;;;;;;;9.35;8.43;;;7.30;99.90;;;;;;5053414;28;20059;-80
2021/11/24 00:34:03;;;;;;;14.52;9.75;;;7.40;99.90;;;;;;5051867;28;20095;-77
2021/11/24 00:36:29;;;;;;;15.80;10.73;;;7.40;99.90;;;;;;5053279;28;20469;-77
2021/11/24 00:38:55;;;;;;;13.23;10.95;;;7.40;99.90;;;;;;5052844;28;20385;-76
2021/11/24 00:41:20;;;;;;;12.77;11.10;;;7.40;99.90;;;;;;5052754;28;20075;-76
2021/11/24 00:43:46;;;;;;;12.57;11.23;;;7.40;99.90;;;;;;5053684;28;20357;-76
2021/11/24 00:46:12;;;;;;;14.82;10.57;;;7.40;99.90;;;;;;5052960;28;20017;-77
2021/11/24 00:48:37;;;;;;;15.60;10.88;;;7.50;99.90;;;;;;5053666;28;20036;-76
2021/11/24 00:51:03;;;;;;;11.93;10.63;;;7.50;99.90;;;;;;5052676;28;20500;-78
2021/11/24 00:53:29;;;;;;;12.80;10.82;;;7.50;99.90;;;;;;5052656;28;20359;-75
2021/11/24 00:55:55;;;;;;;16.48;10.77;;;7.50;99.90;;;;;;5053006;28;20025;-77
2021/11/24 00:58:21;;;;;;;12.98;10.90;;;7.50;99.90;;;;;;5053178;28;20381;-77
2021/11/24 01:00:47;;;;;;;11.70;10.52;;;7.50;99.90;;;;;;5052277;28;20051;-77
2021/11/24 01:03:13;;;;;;;16.42;10.48;;;7.40;99.90;;;;;;5052318;28;20013;-75
2021/11/24 01:05:44;;;;;;;13.60;9.60;;;7.50;99.90;;;;;;5052329;28;20081;-76
2021/11/24 01:08:10;;;;;;;11.02;9.60;;;7.50;99.90;;;;;;5051564;28;20029;-76
2021/11/24 01:10:35;;;;;;;12.77;9.95;;;7.50;99.90;;;;;;5052979;28;20413;-77
2021/11/24 01:13:01;;;;;;;15.52;10.05;;;7.50;99.90;;;;;;5052083;28;20060;-76
2021/11/24 01:15:27;;;;;;;12.32;10.27;;;7.50;99.90;;;;;;5052530;28;20028;-75
2021/11/24 01:17:53;;;;;;;12.30;10.48;;;7.50;99.90;;;;;;5052659;28;20021;-77
2021/11/24 01:20:18;;;;;;;11.35;9.73;;;7.50;99.90;;;;;;5052208;28;20239;-76
2021/11/24 01:22:45;;;;;;;13.25;10.75;;;7.50;99.90;;;;;;5051581;28;20060;-77
2021/11/24 01:25:10;;;;;;;11.68;10.48;;;7.50;99.90;;;;;;5052184;28;20036;-77
2021/11/24 01:27:37;;;;;;;14.55;10.75;;;7.50;99.90;;;;;;5054286;28;20032;-78
2021/11/24 01:30:03;;;;;;;19.13;13.73;;;7.50;99.90;;;;;;5051450;28;20100;-77
2021/11/24 01:32:29;;;;;;;12.60;10.30;;;7.50;99.90;;;;;;5052199;28;20115;-76
2021/11/24 01:34:55;;;;;;;16.60;12.35;;;7.50;99.90;;;;;;5051718;28;20120;-76
2021/11/24 01:37:21;;;;;;;20.38;10.82;;;7.50;99.90;;;;;;5051322;28;20021;-76
2021/11/24 01:39:46;;;;;;;13.98;10.90;;;7.50;99.90;;;;;;5053942;28;20078;-77
2021/11/24 01:42:12;;;;;;;11.82;10.00;;;7.50;99.90;;;;;;5051710;28;20056;-78
2021/11/24 01:44:37;;;;;;;13.05;9.98;;;7.50;99.90;;;;;;5051232;28;20029;-76
2021/11/24 01:47:05;;;;;;;12.55;9.90;;;7.50;99.90;;;;;;5051876;28;20120;-77
2021/11/24 01:49:31;;;;;;;10.93;9.63;;;7.50;99.90;;;;;;5051730;28;20028;-77
2021/11/24 01:51:57;;;;;;;11.38;9.00;;;7.50;99.90;;;;;;5051644;28;20021;-76
2021/11/24 01:54:24;;;;;;;14.88;9.68;;;7.50;99.90;;;;;;5051646;28;20076;-77
2021/11/24 01:56:50;;;;;;;9.88;8.93;;;7.50;99.90;;;;;;5044202;28;20066;-77
2021/11/24 01:59:16;;;;;;;15.75;10.57;;;7.50;99.90;;;;;;5051821;28;20029;-76
2021/11/24 02:01:44;;;;;;;11.43;9.05;;;7.50;99.90;;;;;;5056298;28;20113;-76
2021/11/24 02:04:12;;;;;;;13.30;8.98;;;7.50;99.90;;;;;;5052036;28;20025;-77
2021/11/24 02:06:39;;;;;;;17.33;9.98;;;7.50;99.90;;;;;;5051636;28;20145;-77
2021/11/24 02:09:06;;;;;;;13.65;10.10;;;7.50;99.90;;;;;;5051746;28;20461;-77
2021/11/24 02:11:38;;;;;;;16.02;9.82;;;7.50;99.90;;;;;;5051399;28;20204;-77
2021/11/24 02:14:05;;;;;;;14.98;10.27;;;7.50;99.90;;;;;;5051828;28;20033;-77
2021/11/24 02:16:31;;;;;;;10.98;9.88;;;7.50;99.90;;;;;;5052580;28;20047;-77
2021/11/24 02:18:56;;;;;;;12.38;9.35;;;7.50;99.90;;;;;;5050960;28;20025;-77
2021/11/24 02:21:22;;;;;;;13.73;9.43;;;7.50;99.90;;;;;;5051803;28;20120;-77
2021/11/24 02:23:47;;;;;;;14.35;10.30;;;7.50;99.90;;;;;;5051383;28;20422;-76
2021/11/24 02:26:13;;;;;;;14.90;10.95;;;7.50;99.90;;;;;;5050940;28;20025;-76
2021/11/24 02:28:39;;;;;;;12.68;10.65;;;7.50;99.90;;;;;;5051812;28;20073;-77
2021/11/24 02:31:06;;;;;;;17.02;11.57;;;7.40;99.90;;;;;;5051286;28;20485;-77
2021/11/24 02:33:32;;;;;;;14.15;9.70;;;7.50;99.90;;;;;;5051308;28;20041;-77
2021/11/24 02:35:58;;;;;;;11.27;10.00;;;7.50;99.90;;;;;;5051485;28;20048;-76
2021/11/24 02:38:24;;;;;;;17.15;10.73;;;7.40;99.90;;;;;;5051604;28;20108;-76
2021/11/24 02:40:49;;;;;;;12.60;11.07;;;7.50;99.90;;;;;;5051148;28;20111;-76
2021/11/24 02:43:15;;;;;;;13.35;10.60;;;7.50;99.90;;;;;;5051128;28;20025;-76
2021/11/24 02:45:41;;;;;;;13.70;10.25;;;7.50;99.90;;;;;;5052353;28;20021;-76
2021/11/24 02:48:07;;;;;;;14.70;10.95;;;7.40;99.90;;;;;;5050432;28;20018;-76
2021/11/24 02:50:33;;;;;;;13.65;10.88;;;7.50;99.90;;;;;;5051414;28;20036;-75
2021/11/24 02:52:59;;;;;;;17.10;10.80;;;7.50;99.90;;;;;;5051841;28;20029;-76
2021/11/24 02:55:24;;;;;;;14.65;11.70;;;7.50;99.90;;;;;;5055466;28;20021;-75
2021/11/24 02:57:52;;;;;;;15.68;12.27;;;7.50;99.90;;;;;;5055019;28;20047;-77
2021/11/24 03:00:21;;;;;;;12.38;10.98;;;7.50;99.90;;;;;;5060610;28;20013;-76
2021/11/24 03:02:48;;;;;;;15.95;12.02;;;7.50;99.90;;;;;;5057463;28;20032;-76
2021/11/24 03:05:16;;;;;;;12.52;11.18;;;7.50;99.90;;;;;;5054178;28;20183;-75
2021/11/24 03:07:42;;;;;;;14.05;10.75;;;7.50;99.90;;;;;;5054382;28;20033;-76
2021/11/24 03:10:09;;;;;;;15.32;11.40;;;7.50;99.90;;;;;;5056533;28;20439;-76
2021/11/24 03:12:36;;;;;;;14.27;11.25;;;7.50;99.90;;;;;;5055633;28;20396;-77
2021/11/24 03:15:02;;;;;;;18.85;11.55;;;7.50;99.90;;;;;;5060098;28;20029;-77
2021/11/24 03:17:28;;;;;;;17.58;11.40;;;7.50;99.90;;;;;;5058317;28;20474;-77
2021/11/24 03:19:54;;;;;;;18.52;12.38;;;8.10;99.90;;;;;;5054362;28;20025;-75
2021/11/24 03:22:22;;;;;;;20.42;12.73;;;7.50;99.90;;;;;;5054173;28;20397;-76
2021/11/24 03:24:55;;;;;;;18.90;12.93;;;7.60;99.90;;;;;;5054468;28;20077;-76
2021/11/24 03:27:23;;;;;;;23.25;12.70;;;7.60;99.90;;;;;;5054511;28;20024;-76
2021/11/24 03:29:49;;;;;;;16.58;12.80;;;7.50;99.90;;;;;;5053675;28;20017;-76
2021/11/24 03:32:14;;;;;;;17.17;12.95;;;7.60;99.90;;;;;;5053960;28;20036;-75
2021/11/24 03:34:43;;;;;;;18.50;12.50;;;7.60;99.90;;;;;;5055143;28;20113;-77
2021/11/24 03:37:08;;;;;;;16.75;12.40;;;7.50;99.90;;;;;;5054946;28;20093;-78
2021/11/24 03:39:34;;;;;;;12.35;10.85;;;7.50;99.90;;;;;;5054357;28;20508;-75
2021/11/24 03:41:59;;;;;;;14.38;11.77;;;7.40;99.90;;;;;;5054290;28;20017;-77
2021/11/24 03:44:25;;;;;;;16.48;12.35;;;7.40;99.90;;;;;;5053630;28;20017;-77
2021/11/24 03:46:50;;;;;;;16.20;11.57;;;7.40;99.90;;;;;;5054257;28;20146;-76
2021/11/24 03:49:16;;;;;;;13.77;11.40;;;7.40;99.90;;;;;;5053133;28;20476;-76
2021/11/24 03:51:42;;;;;;;19.63;13.82;;;7.40;99.90;;;;;;5054329;28;20021;-75
2021/11/24 03:54:07;;;;;;;19.88;14.07;;;7.50;99.90;;;;;;5053499;28;20047;-75
2021/11/24 03:56:33;;;;;;;17.48;13.13;;;7.50;99.90;;;;;;5053449;28;20116;-75
2021/11/24 03:58:58;;;;;;;19.83;13.07;;;7.40;99.90;;;;;;5053702;28;20029;-75
2021/11/24 04:01:24;;;;;;;14.27;11.73;;;7.40;99.90;;;;;;5053624;28;20035;-75
2021/11/24 04:03:50;;;;;;;16.27;12.75;;;7.40;99.90;;;;;;5053682;28;20112;-77
2021/11/24 04:06:15;;;;;;;17.40;12.13;;;7.40;99.90;;;;;;5053190;28;20091;-75
2021/11/24 04:08:41;;;;;;;15.90;12.15;;;7.40;99.90;;;;;;5053824;28;20024;-75
2021/11/24 04:11:06;;;;;;;13.55;11.80;;;7.40;99.90;;;;;;5053029;28;20031;-76
2021/11/24 04:13:32;;;;;;;15.13;11.98;;;7.40;99.90;;;;;;5053778;28;20057;-76
2021/11/24 04:15:58;;;;;;;18.77;13.38;;;7.40;99.90;;;;;;5053566;28;20481;-76
2021/11/24 04:18:23;;;;;;;20.13;13.68;;;7.40;99.90;;;;;;5053204;28;20116;-76
2021/11/24 04:20:49;;;;;;;25.77;16.38;;;7.40;99.90;;;;;;5053607;28;20514;-75
2021/11/24 04:23:14;;;;;;;23.83;15.98;;;7.40;99.90;;;;;;5053034;28;20025;-75
2021/11/24 04:25:40;;;;;;;19.40;14.43;;;7.40;99.90;;;;;;5052828;28;20090;-75
2021/11/24 04:28:06;;;;;;;21.98;16.10;;;7.40;99.90;;;;;;5052910;28;20040;-76
2021/11/24 04:30:32;;;;;;;18.77;14.55;;;7.40;99.90;;;;;;5053109;28;20028;-75
2021/11/24 04:32:58;;;;;;;22.80;15.27;;;7.40;99.90;;;;;;5052097;28;20036;-75
2021/11/24 04:35:25;;;;;;;23.95;15.77;;;7.40;99.90;;;;;;5052628;28;20021;-75
2021/11/24 04:37:54;;;;;;;22.25;16.33;;;7.40;99.90;;;;;;5053245;28;20098;-75
2021/11/24 04:40:20;;;;;;;23.98;16.65;;;7.40;99.90;;;;;;5052464;28;20385;-76
2021/11/24 04:42:46;;;;;;;23.33;16.35;;;7.40;99.90;;;;;;5052664;28;20108;-75
2021/11/24 04:45:12;;;;;;;24.23;17.65;;;7.40;99.90;;;;;;5052562;28;20670;-76
2021/11/24 04:47:38;;;;;;;26.80;17.30;;;7.40;99.90;;;;;;5052198;28;20061;-77
2021/11/24 04:50:04;;;;;;;25.98;18.48;;;7.40;99.90;;;;;;5052533;28;20424;-75
2021/11/24 04:52:30;;;;;;;26.90;18.17;;;7.40;99.90;;;;;;5052020;28;20064;-75
2021/11/24 04:54:55;;;;;;;30.15;17.65;;;7.40;99.90;;;;;;5052246;28;20025;-75
2021/11/24 04:57:21;;;;;;;24.42;16.27;;;7.40;99.90;;;;;;5052678;28;20029;-75
2021/11/24 04:59:47;;;;;;;26.70;17.17;;;7.40;99.90;;;;;;5051789;28;20477;-75
2021/11/24 05:02:12;;;;;;;25.00;17.88;;;7.40;99.90;;;;;;5055314;28;20052;-74
2021/11/24 05:04:38;;;;;;;30.38;20.33;;;7.40;99.90;;;;;;5055724;28;20025;-77
2021/11/24 05:07:10;;;;;;;30.75;19.42;;;7.40;99.90;;;;;;5051656;28;20171;-76
2021/11/24 05:09:35;;;;;;;30.63;20.52;;;7.40;99.90;;;;;;5052669;28;20060;-76
2021/11/24 05:12:03;;;;;;;27.48;20.85;;;7.40;99.90;;;;;;5053544;28;20455;-75
2021/11/24 05:14:33;;;;;;;32.38;21.20;;;7.40;99.90;;;;;;5054348;28;20116;-74
2021/11/24 05:17:01;;;;;;;28.38;19.67;;;7.40;99.90;;;;;;5055401;28;20025;-76
2021/11/24 05:19:32;;;;;;;32.28;21.35;;;7.40;99.90;;;;;;5057850;28;20032;-75
2021/11/24 05:21:59;;;;;;;;;;;7.40;99.90;;;;;;5052195;28;20025;-75
2021/11/24 05:24:25;;;;;;;27.98;20.35;;;7.40;99.90;;;;;;5052894;28;20276;-76
2021/11/24 05:26:51;;;;;;;32.58;20.48;;;7.40;99.90;;;;;;5052578;28;20029;-76
2021/11/24 05:29:17;;;;;;;29.80;20.65;;;7.40;99.90;;;;;;5051585;28;20485;-76
2021/11/24 05:31:42;;;;;;;29.88;21.00;;;7.40;99.90;;;;;;5052746;28;20028;-76
2021/11/24 05:34:08;;;;;;;28.35;20.15;;;7.40;99.90;;;;;;5052349;28;20481;-75
2021/11/24 05:36:35;;;;;;;36.75;22.65;;;7.40;99.90;;;;;;5051576;28;20108;-76
2021/11/24 05:39:05;;;;;;;32.28;20.65;;;7.40;99.90;;;;;;5052363;28;20033;-75
2021/11/24 05:41:31;;;;;;;30.48;20.92;;;7.40;99.90;;;;;;5053011;28;20028;-75
2021/11/24 05:44:05;;;;;;;30.20;21.10;;;7.40;99.90;;;;;;5051530;28;20025;-75
2021/11/24 05:49:27;;;;;;;27.83;19.63;;;7.40;99.90;;;;;;5026743;28;20120;-75
2021/11/24 05:51:57;;;;;;;33.33;20.27;;;7.40;99.90;;;;;;5050407;28;20025;-75
2021/11/24 05:54:23;;;;;;;30.02;20.88;;;7.40;99.90;;;;;;5050295;28;20448;-76
2021/11/24 05:56:49;;;;;;;33.92;18.60;;;7.40;99.90;;;;;;5051039;28;20022;-76
2021/11/24 05:59:17;;;;;;;33.30;19.83;;;7.40;99.90;;;;;;5050685;28;20082;-76
2021/11/24 06:01:43;;;;;;;33.22;20.70;;;7.40;99.90;;;;;;5051344;28;20028;-75
2021/11/24 06:04:09;;;;;;;30.77;19.92;;;7.40;99.90;;;;;;5050509;28;20033;-77
2021/11/24 06:06:37;;;;;;;25.50;18.73;;;7.40;99.90;;;;;;5049761;28;20499;-77
2021/11/24 06:09:06;;;;;;;31.13;19.23;;;7.40;99.90;;;;;;5049197;28;20029;-77
2021/11/24 06:11:32;;;;;;;27.27;19.17;;;7.40;99.90;;;;;;5049356;28;20435;-77
2021/11/24 06:13:58;;;;;;;28.55;19.83;;;7.40;99.90;;;;;;5048835;28;20031;-75
2021/11/24 06:16:23;;;;;;;33.35;20.67;;;7.40;99.90;;;;;;5050371;28;20048;-76
2021/11/24 06:18:49;;;;;;;29.02;19.55;;;7.40;99.90;;;;;;5049720;28;20039;-76
2021/11/24 06:21:18;;;;;;;23.88;18.75;;;7.40;99.90;;;;;;5049324;28;20013;-76
2021/11/24 06:23:44;;;;;;;27.73;19.85;;;7.40;99.90;;;;;;5049619;28;20029;-76
2021/11/24 06:26:10;;;;;;;32.20;19.00;;;7.40;99.90;;;;;;5045702;28;20083;-76
2021/11/24 06:28:36;;;;;;;28.13;19.98;;;7.50;99.90;;;;;;5033122;28;20541;-77
2021/11/24 06:31:02;;;;;;;28.58;18.67;;;7.40;99.90;;;;;;5040324;28;20033;-77
2021/11/24 06:33:28;;;;;;;27.85;20.33;;;7.40;99.90;;;;;;5037081;28;20064;-74
2021/11/24 06:35:54;;;;;;;29.27;20.23;;;7.40;99.90;;;;;;5038388;28;20057;-76
2021/11/24 06:38:21;;;;;;;26.13;19.35;;;7.40;99.90;;;;;;5037702;28;20036;-77
2021/11/24 06:40:47;;;;;;;30.27;20.38;;;7.40;99.90;;;;;;5042137;28;20037;-76
2021/11/24 06:43:13;;;;;;;29.85;20.77;;;7.30;99.90;;;;;;5036897;28;20484;-77
2021/11/24 06:45:39;;;;;;;29.75;19.48;;;7.40;99.90;;;;;;5040198;28;20033;-76
2021/11/24 06:48:05;;;;;;;26.52;18.65;;;7.30;99.90;;;;;;5043114;28;20044;-76
2021/11/24 06:50:30;;;;;;;33.88;20.05;;;7.30;99.90;;;;;;5036334;28;20086;-76
2021/11/24 06:52:56;;;;;;;31.83;20.35;;;7.30;99.90;;;;;;5037529;28;20469;-76
2021/11/24 06:55:22;;;;;;;26.70;19.38;;;7.30;99.90;;;;;;5045211;28;20315;-76
2021/11/24 06:57:47;;;;;;;27.17;19.42;;;7.30;99.90;;;;;;5041801;28;20021;-76
2021/11/24 07:00:16;;;;;;;27.33;18.70;;;7.30;99.90;;;;;;5037472;28;20033;-76
2021/11/24 07:02:42;;;;;;;28.48;18.60;;;7.30;99.90;;;;;;5053686;28;20074;-77
2021/11/24 07:05:09;;;;;;;29.67;18.77;;;7.40;99.90;;;;;;5057723;28;20045;-76
2021/11/24 07:07:34;;;;;;;27.50;19.48;;;7.40;99.90;;;;;;5057987;28;20017;-77
2021/11/24 07:10:00;;;;;;;25.92;18.50;;;7.30;99.90;;;;;;5050615;28;20021;-76
2021/11/24 07:12:26;;;;;;;28.95;19.05;;;7.30;99.90;;;;;;5051321;28;20027;-76
2021/11/24 07:14:53;;;;;;;28.42;18.98;;;7.30;99.90;;;;;;5054566;28;20060;-75
2021/11/24 07:17:19;;;;;;;27.30;18.05;;;7.30;99.90;;;;;;5057880;28;20066;-76
2021/11/24 07:19:44;;;;;;;32.13;18.30;;;7.40;99.90;;;;;;5057410;28;20108;-75
2021/11/24 07:22:10;;;;;;;21.75;16.77;;;7.30;99.90;;;;;;5056629;28;20493;-78
2021/11/24 07:24:36;;;;;;;29.33;20.02;;;7.30;99.90;;;;;;5052484;28;20446;-77
2021/11/24 07:27:01;;;;;;;28.67;18.65;;;7.30;99.90;;;;;;5051712;28;20036;-77
2021/11/24 07:29:27;;;;;;;24.65;18.88;;;7.40;99.90;;;;;;5051053;28;20033;-77
2021/11/24 07:31:52;;;;;;;25.30;17.77;;;7.30;99.90;;;;;;5052806;28;20029;-77
2021/11/24 07:34:18;;;;;;;25.98;18.40;;;7.40;99.90;;;;;;5052302;28;20035;-77
2021/11/24 07:36:44;;;;;;;21.98;17.98;;;7.40;99.90;;;;;;5054062;28;20065;-77
2021/11/24 07:39:09;;;;;;;21.73;17.52;;;7.40;99.90;;;;;;5046335;28;20021;-76
2021/11/24 07:41:35;;;;;;;21.52;15.68;;;7.40;99.90;;;;;;5053508;28;20082;-76
2021/11/24 07:44:01;;;;;;;19.65;15.20;;;7.40;99.90;;;;;;5054302;28;20043;-74
2021/11/24 07:46:27;;;;;;;21.42;14.85;;;7.50;99.90;;;;;;5055167;28;20057;-76
2021/11/24 07:48:52;;;;;;;24.80;16.60;;;7.50;99.90;;;;;;5054257;28;20053;-75
2021/11/24 07:51:18;;;;;;;21.00;14.77;;;7.50;99.90;;;;;;5054010;28;20021;-77
2021/11/24 07:53:45;;;;;;;21.27;14.48;;;7.50;99.90;;;;;;5054222;28;20067;-77
2021/11/24 07:56:11;;;;;;;19.17;14.68;;;7.50;99.90;;;;;;5053979;28;20024;-77
2021/11/24 07:58:40;;;;;;;19.83;15.18;;;8.40;99.90;;;;;;5054509;28;20048;-77
2021/11/24 08:01:06;;;;;;;20.63;15.40;;;7.50;99.90;;;;;;5053510;28;20028;-80
2021/11/24 08:03:31;;;;;;;19.70;15.48;;;7.50;99.90;;;;;;5053330;28;20051;-77
2021/11/24 08:05:57;;;;;;;21.02;15.68;;;7.60;99.90;;;;;;5053665;28;20047;-77
2021/11/24 08:08:22;;;;;;;20.45;14.77;;;7.50;99.90;;;;;;5054562;28;20115;-75
2021/11/24 08:10:48;;;;;;;19.42;15.07;;;7.60;99.90;;;;;;5054195;28;20025;-76
2021/11/24 08:13:13;;;;;;;25.02;16.80;;;7.60;99.90;;;;;;5054139;28;20099;-78
2021/11/24 08:15:39;;;;;;;25.92;16.27;;;7.60;99.90;;;;;;5053442;28;20045;-76
2021/11/24 08:18:05;;;;;;;26.45;16.70;;;7.60;99.90;;;;;;5051898;28;20499;-75
2021/11/24 08:20:30;;;;;;;21.00;15.32;;;7.60;99.90;;;;;;5053809;28;20526;-76
2021/11/24 08:22:56;;;;;;;24.90;17.15;;;7.70;99.90;;;;;;5052416;28;20031;-75
2021/11/24 08:25:21;;;;;;;17.08;14.25;;;7.60;99.90;;;;;;5051803;28;20381;-74
2021/11/24 08:27:47;;;;;;;21.48;15.20;;;7.60;99.90;;;;;;5053725;28;20033;-74
2021/11/24 08:30:13;;;;;;;19.23;13.93;;;7.70;99.90;;;;;;5053149;28;20192;-75
2021/11/24 08:32:38;;;;;;;18.08;13.32;;;7.60;99.90;;;;;;5052797;28;20028;-76
2021/11/24 08:35:06;;;;;;;14.27;12.13;;;7.70;99.90;;;;;;5053462;28;20029;-74
2021/11/24 08:37:32;;;;;;;17.70;13.50;;;7.70;99.90;;;;;;5054248;28;20040;-75
2021/11/24 08:39:57;;;;;;;20.60;13.68;;;7.70;99.90;;;;;;5053086;28;20487;-76
2021/11/24 08:42:26;;;;;;;21.52;13.73;;;7.70;99.90;;;;;;5053023;28;20112;-75
2021/11/24 08:44:52;;;;;;;15.10;11.73;;;7.70;99.90;;;;;;5052505;28;20465;-76
2021/11/24 08:47:18;;;;;;;14.85;11.95;;;7.70;99.90;;;;;;5052763;28;20029;-75
2021/11/24 08:49:44;;;;;;;16.05;11.77;;;7.80;99.90;;;;;;5052869;28;20463;-75
2021/11/24 08:52:10;;;;;;;14.50;12.40;;;7.80;99.90;;;;;;5053500;28;20549;-76
2021/11/24 08:54:37;;;;;;;15.85;13.00;;;7.80;99.90;;;;;;5052840;28;20041;-75
2021/11/24 08:57:04;;;;;;;19.13;12.65;;;7.80;99.90;;;;;;5052440;28;20492;-75
2021/11/24 08:59:29;;;;;;;18.33;11.93;;;7.80;99.90;;;;;;5051889;28;20028;-75
2021/11/24 09:01:55;;;;;;;13.88;11.05;;;7.90;99.90;;;;;;5053155;28;20082;-75
2021/11/24 09:04:21;;;;;;;15.55;11.20;;;7.90;99.90;;;;;;5053432;28;20111;-76
2021/11/24 09:06:47;;;;;;;15.75;10.43;;;7.90;99.90;;;;;;5052314;28;20087;-75
2021/11/24 09:09:13;;;;;;;18.45;10.27;;;7.90;99.90;;;;;;5052407;28;20021;-74
2021/11/24 09:11:38;;;;;;;14.35;9.43;;;7.90;99.90;;;;;;5052873;28;20021;-76
2021/11/24 09:14:05;;;;;;;10.50;8.70;;;8.00;99.90;;;;;;5051910;28;20047;-74
2021/11/24 09:16:30;;;;;;;10.00;8.27;;;8.00;99.90;;;;;;5052545;28;20064;-75
2021/11/24 09:18:56;;;;;;;9.30;8.35;;;8.00;99.90;;;;;;5051852;28;20086;-78
2021/11/24 09:21:23;;;;;;;13.45;9.82;;;8.00;99.90;;;;;;5051954;28;20029;-77
2021/11/24 09:23:50;;;;;;;15.50;9.30;;;8.10;99.90;;;;;;5052884;28;20025;-76
2021/11/24 09:28:42;;;;;;;12.88;9.75;;;8.20;99.90;;;;;;5053105;28;20481;-77
2021/11/24 09:31:08;;;;;;;13.13;9.15;;;8.20;99.90;;;;;;5052146;28;20036;-77
2021/11/24 09:33:34;;;;;;;11.70;9.02;;;8.20;99.90;;;;;;5052178;28;20037;-76
2021/11/24 09:36:03;;;;;;;10.50;9.48;;;8.30;99.90;;;;;;5051427;28;20048;-74
2021/11/24 09:38:29;;;;;;;9.20;8.30;;;8.30;99.90;;;;;;5052478;28;20033;-75
2021/11/24 09:40:56;;;;;;;8.93;8.02;;;8.30;99.90;;;;;;5051369;28;20103;-76
2021/11/24 09:43:23;;;;;;;9.68;7.90;;;8.30;99.90;;;;;;5050900;28;20059;-75
2021/11/24 09:45:50;;;;;;;8.52;7.63;;;8.40;99.90;;;;;;5051128;28;20029;-76
2021/11/24 09:48:19;;;;;;;11.27;8.77;;;8.40;99.90;;;;;;5050634;28;20028;-75
2021/11/24 09:50:47;;;;;;;10.07;9.07;;;8.40;99.90;;;;;;5049226;28;20021;-76
2021/11/24 09:53:15;;;;;;;13.93;8.27;;;8.40;99.90;;;;;;5049517;28;20503;-75
2021/11/24 09:55:43;;;;;;;10.50;8.20;;;8.40;99.90;;;;;;5040441;28;20036;-75
2021/11/24 09:58:10;;;;;;;9.57;8.23;;;8.40;99.90;;;;;;5047163;28;20028;-75
2021/11/24 10:00:39;;;;;;;9.40;8.40;;;8.50;99.90;;;;;;5041000;28;20400;-75
2021/11/24 10:03:05;;;;;;;11.20;8.65;;;8.50;99.90;;;;;;5036581;28;20025;-75
2021/11/24 10:05:35;;;;;;;11.18;8.52;;;8.50;99.90;;;;;;5038529;28;20175;-76
2021/11/24 10:08:01;;;;;;;12.27;9.77;;;8.60;99.90;;;;;;5039563;28;20107;-75
2021/11/24 10:10:27;;;;;;;11.05;9.27;;;8.60;99.90;;;;;;5053901;28;20587;-74
2021/11/24 10:12:54;;;;;;;10.27;8.43;;;8.60;99.90;;;;;;5054814;28;20036;-74
2021/11/24 10:15:47;;;;;;;11.32;9.32;;;8.60;99.90;;;;;;5054597;28;20025;-74
2021/11/24 10:18:29;;;;;;;8.73;7.85;;;8.60;99.90;;;;;;5051537;28;20366;-75
2021/11/24 10:21:15;;;;;;;12.07;7.97;;;8.70;99.90;;;;;;5049120;28;20029;-75
2021/11/24 10:23:43;;;;;;;12.52;8.25;;;8.70;99.90;;;;;;5051126;28;20477;-74
2021/11/24 10:26:28;;;;;;;8.85;7.97;;;8.70;99.90;;;;;;5055465;28;20056;-74
2021/11/24 10:29:05;;;;;;;9.35;7.50;;;8.80;99.90;;;;;;5050735;28;20056;-75
2021/11/24 10:31:38;;;;;;;8.82;7.25;;;8.90;99.90;;;;;;5052672;28;20055;-75
2021/11/24 10:34:18;;;;;;;10.05;7.20;;;8.80;99.90;;;;;;5053828;28;20075;-76
2021/11/24 10:37:05;;;;;;;8.25;7.43;;;8.90;99.90;;;;;;5051290;28;20025;-76
2021/11/24 10:39:36;;;;;;;11.25;7.20;;;8.90;99.90;;;;;;5042257;28;20025;-76
2021/11/24 10:42:05;;;;;;;7.43;6.72;;;9.00;99.90;;;;;;5042235;28;20025;-76
2021/11/24 10:44:32;;;;;;;7.97;7.17;;;9.00;99.90;;;;;;5042325;28;20029;-75
2021/11/24 10:46:59;;;;;;;7.03;6.35;;;9.00;99.90;;;;;;5042282;28;20049;-74
2021/11/24 10:49:43;;;;;;;10.63;6.82;;;9.00;99.90;;;;;;5046600;28;20056;-74
2021/11/24 10:52:18;;;;;;;8.68;6.53;;;9.10;99.90;;;;;;5049456;28;20441;-75
2021/11/24 10:54:57;;;;;;;8.07;6.82;;;9.10;99.90;;;;;;5051754;28;20497;-75
2021/11/24 10:57:22;;;;;;;7.10;6.40;;;9.10;99.90;;;;;;5048307;28;20116;-76
2021/11/24 10:59:48;;;;;;;6.95;6.18;;;9.10;99.90;;;;;;5041338;28;20112;-75
2021/11/24 11:02:25;;;;;;;6.55;5.95;;;9.10;99.90;;;;;;5051763;28;20385;-75
2021/11/24 11:05:08;;;;;;;6.20;5.60;;;9.20;99.90;;;;;;5053322;28;20032;-75
2021/11/24 11:07:55;;;;;;;6.85;5.72;;;9.10;99.90;;;;;;5047263;28;20519;-76
2021/11/24 11:10:41;;;;;;;6.15;5.13;;;9.20;99.90;;;;;;5056059;28;20079;-75
2021/11/24 11:13:12;;;;;;;5.13;4.72;;;9.20;99.90;;;;;;5048477;28;20025;-75
2021/11/24 11:15:41;;;;;;;5.05;4.38;;;9.30;99.90;;;;;;5052282;28;20025;-75
2021/11/24 11:18:08;;;;;;;4.80;4.40;;;9.30;99.90;;;;;;5051684;28;20021;-75
2021/11/24 11:21:07;;;;;;;5.70;4.95;;;9.30;99.90;;;;;;5052086;28;20025;-75
2021/11/24 11:23:36;;;;;;;4.97;4.50;;;9.30;99.90;;;;;;5052517;28;20028;-76
2021/11/24 11:26:03;;;;;;;4.75;4.35;;;9.30;99.90;;;;;;5052170;28;20405;-75
2021/11/24 11:28:41;;;;;;;4.60;4.20;;;9.30;99.90;;;;;;5051125;28;20037;-74
2021/11/24 11:31:09;;;;;;;4.10;3.80;;;9.30;99.90;;;;;;5051902;28;20040;-76
2021/11/24 11:33:40;;;;;;;5.20;4.70;;;9.40;99.90;;;;;;5052394;28;20039;-76
2021/11/24 11:36:11;;;;;;;6.63;5.25;;;9.40;99.90;;;;;;5051447;28;20035;-75
2021/11/24 11:38:38;;;;;;;9.55;6.25;;;9.40;99.90;;;;;;5052901;28;20032;-75
2021/11/24 11:41:09;;;;;;;9.90;6.30;;;9.40;99.90;;;;;;5051121;28;20028;-75
2021/11/24 11:43:35;;;;;;;9.00;7.18;;;9.40;99.90;;;;;;5052107;28;20040;-75
2021/11/24 11:46:22;;;;;;;9.52;8.18;;;9.40;99.90;;;;;;5052607;28;20151;-75
2021/11/24 11:48:51;;;;;;;9.65;7.22;;;9.40;99.90;;;;;;5052834;28;20547;-75
2021/11/24 11:51:27;;;;;;;8.80;6.20;;;9.40;99.90;;;;;;5052598;28;20092;-75
2021/11/24 11:53:53;;;;;;;8.27;7.47;;;9.40;99.90;;;;;;5050811;28;20037;-76
2021/11/24 11:56:21;;;;;;;8.75;7.88;;;9.40;99.90;;;;;;5052274;28;20033;-74
2021/11/24 11:58:54;;;;;;;11.02;7.65;;;9.40;99.90;;;;;;5051953;28;20021;-75
2021/11/24 12:01:35;;;;;;;7.93;7.22;;;9.40;99.90;;;;;;5051495;28;20473;-75
2021/11/24 12:04:19;;;;;;;11.30;7.45;;;9.40;99.90;;;;;;5050314;28;20477;-75
2021/11/24 12:06:47;;;;;;;9.95;7.93;;;9.40;99.90;;;;;;5050882;28;20067;-75
2021/11/24 12:09:14;;;;;;;7.80;7.00;;;9.40;99.90;;;;;;5051312;28;20060;-76
2021/11/24 12:11:59;;;;;;;8.07;7.28;;;9.40;99.90;;;;;;5050554;28;20020;-76
2021/11/24 12:14:46;;;;;;;8.93;7.55;;;9.40;99.90;;;;;;5050073;28;20036;-75
2021/11/24 12:17:30;;;;;;;7.82;7.03;;;9.40;99.90;;;;;;5050524;28;20075;-75
2021/11/24 12:20:11;;;;;;;8.73;7.82;;;9.40;99.90;;;;;;5051456;28;20040;-76
2021/11/24 12:25:18;;;;;;;8.10;7.35;;;9.30;99.90;;;;;;5046172;28;20493;-76
2021/11/24 12:27:52;;;;;;;8.32;7.40;;;9.40;99.90;;;;;;5051147;28;20074;-77
2021/11/24 12:30:56;;;;;;;8.50;7.13;;;9.30;99.90;;;;;;5049146;28;20025;-76
2021/11/24 12:33:54;;;;;;;10.15;7.47;;;9.40;99.90;;;;;;5032673;28;20044;-78
2021/11/24 12:36:24;;;;;;;10.82;7.93;;;9.30;99.90;;;;;;5039568;28;20497;-77
2021/11/24 12:38:54;;;;;;;7.82;7.00;;;9.30;99.90;;;;;;5042079;28;20117;-76
2021/11/24 12:41:39;;;;;;;7.55;6.85;;;9.30;99.90;;;;;;5042366;28;20037;-75
2021/11/24 12:44:09;;;;;;;6.43;5.82;;;9.30;99.90;;;;;;5039745;28;20025;-74
2021/11/24 12:46:38;;;;;;;6.22;5.63;;;9.30;99.90;;;;;;5042884;28;20389;-76
2021/11/24 12:49:16;;;;;;;7.05;6.35;;;9.30;99.90;;;;;;5040925;28;20040;-76
2021/11/24 12:51:46;;;;;;;6.18;5.57;;;9.30;99.90;;;;;;5047869;28;20040;-76
2021/11/24 12:54:24;;;;;;;7.63;6.80;;;9.30;99.90;;;;;;5043916;28;20112;-76